createdAt,value
2018-05-11T00:00:34.120Z,988.01
2018-05-11T00:01:34.064Z,988.02
2018-05-11T00:02:34.007Z,988.04
2018-05-11T00:03:33.949Z,988.01
2018-05-11T00:04:33.893Z,987.99
2018-05-11T00:05:33.833Z,988.00
2018-05-11T00:06:33.775Z,987.99
2018-05-11T00:07:33.719Z,987.96
2018-05-11T00:08:33.662Z,987.97
2018-05-11T00:09:33.607Z,987.97
2018-05-11T00:10:33.549Z,988.00
2018-05-11T00:11:33.490Z,987.98
2018-05-11T00:12:33.433Z,987.95
2018-05-11T00:13:33.375Z,987.96
2018-05-11T00:14:33.317Z,987.94
2018-05-11T00:15:33.261Z,987.98
2018-05-11T00:16:33.203Z,987.95
2018-05-11T00:17:33.147Z,987.95
2018-05-11T00:18:33.087Z,987.90
2018-05-11T00:19:33.031Z,987.92
2018-05-11T00:20:32.973Z,987.94
2018-05-11T00:21:32.916Z,987.87
2018-05-11T00:22:32.857Z,987.91
2018-05-11T00:23:32.849Z,987.93
2018-05-11T00:24:32.742Z,987.92
2018-05-11T00:25:32.684Z,987.94
2018-05-11T00:26:32.632Z,987.93
2018-05-11T00:27:32.571Z,987.89
2018-05-11T00:28:32.517Z,987.95
2018-05-11T00:29:32.455Z,987.94
2018-05-11T00:30:32.396Z,987.97
2018-05-11T00:31:32.344Z,987.92
2018-05-11T00:32:32.283Z,987.97
2018-05-11T00:33:32.224Z,987.96
2018-05-11T00:34:32.165Z,987.92
2018-05-11T00:35:32.109Z,987.95
2018-05-11T00:36:32.050Z,987.92
2018-05-11T00:37:31.992Z,987.89
2018-05-11T00:38:31.935Z,987.90
2018-05-11T00:39:31.878Z,987.88
2018-05-11T00:40:31.820Z,987.87
2018-05-11T00:41:31.762Z,987.88
2018-05-11T00:42:31.703Z,987.86
2018-05-11T00:43:31.652Z,987.88
2018-05-11T00:44:31.589Z,987.89
2018-05-11T00:45:31.532Z,987.90
2018-05-11T00:46:31.475Z,987.94
2018-05-11T00:47:31.415Z,987.85
2018-05-11T00:48:31.358Z,987.86
2018-05-11T00:49:31.299Z,987.89
2018-05-11T00:50:31.242Z,987.88
2018-05-11T00:51:31.185Z,987.88
2018-05-11T00:52:31.125Z,987.87
2018-05-11T00:53:31.067Z,987.91
2018-05-11T00:54:31.016Z,987.89
2018-05-11T00:55:30.952Z,987.91
2018-05-11T00:56:30.894Z,987.90
2018-05-11T00:57:30.836Z,987.90
2018-05-11T00:58:30.777Z,987.90
2018-05-11T00:59:30.719Z,987.91
2018-05-11T01:00:30.662Z,987.95
2018-05-11T01:01:30.604Z,987.93
2018-05-11T01:02:30.546Z,987.93
2018-05-11T01:03:30.491Z,987.93
2018-05-11T01:04:30.431Z,987.94
2018-05-11T01:05:30.373Z,987.97
2018-05-11T01:06:30.313Z,987.97
2018-05-11T01:07:30.257Z,987.98
2018-05-11T01:08:30.199Z,987.98
2018-05-11T01:09:30.140Z,987.99
2018-05-11T01:10:30.080Z,988.01
2018-05-11T01:11:30.023Z,987.98
2018-05-11T01:12:29.964Z,988.00
2018-05-11T01:13:29.907Z,987.98
2018-05-11T01:14:29.851Z,987.93
2018-05-11T01:15:29.789Z,988.00
2018-05-11T01:16:29.731Z,987.98
2018-05-11T01:17:29.674Z,988.00
2018-05-11T01:18:29.615Z,988.00
2018-05-11T01:19:29.558Z,988.00
2018-05-11T01:20:29.498Z,987.97
2018-05-11T01:21:29.441Z,987.95
2018-05-11T01:22:29.382Z,987.99
2018-05-11T01:23:29.323Z,987.94
2018-05-11T01:24:29.264Z,987.93
2018-05-11T01:25:29.206Z,987.92
2018-05-11T01:26:29.148Z,987.91
2018-05-11T01:27:29.089Z,987.97
2018-05-11T01:28:29.032Z,987.95
2018-05-11T01:29:28.971Z,987.98
2018-05-11T01:30:28.913Z,988.00
2018-05-11T01:31:28.854Z,987.91
2018-05-11T01:32:28.795Z,988.03
2018-05-11T01:33:28.737Z,988.05
2018-05-11T01:34:28.680Z,988.03
2018-05-11T01:35:28.621Z,987.98
2018-05-11T01:36:28.566Z,988.05
2018-05-11T01:37:28.506Z,987.99
2018-05-11T01:38:28.443Z,987.98
2018-05-11T01:39:28.386Z,988.00
2018-05-11T01:40:28.327Z,988.00
2018-05-11T01:41:28.268Z,987.98
2018-05-11T01:42:28.213Z,988.01
2018-05-11T01:43:28.149Z,988.05
2018-05-11T01:44:28.092Z,988.04
2018-05-11T01:45:28.033Z,987.97
2018-05-11T01:46:27.974Z,988.02
2018-05-11T01:47:27.918Z,988.01
2018-05-11T01:48:27.856Z,988.00
2018-05-11T01:49:27.798Z,987.97
2018-05-11T01:50:27.738Z,988.03
2018-05-11T01:51:27.679Z,988.02
2018-05-11T01:52:27.625Z,988.00
2018-05-11T01:53:27.562Z,987.96
2018-05-11T01:54:27.504Z,987.99
2018-05-11T01:55:27.442Z,988.01
2018-05-11T01:56:27.431Z,988.01
2018-05-11T01:57:27.326Z,988.02
2018-05-11T01:58:27.267Z,987.96
2018-05-11T01:59:27.207Z,987.98
2018-05-11T02:00:27.149Z,987.98
2018-05-11T02:01:27.089Z,987.98
2018-05-11T02:02:27.032Z,987.99
2018-05-11T02:03:26.971Z,987.97
2018-05-11T02:04:26.911Z,987.97
2018-05-11T02:05:26.852Z,987.99
2018-05-11T02:06:26.792Z,987.98
2018-05-11T02:07:26.733Z,987.98
2018-05-11T02:08:26.674Z,988.03
2018-05-11T02:09:26.615Z,988.03
2018-05-11T02:10:26.557Z,988.05
2018-05-11T02:11:26.498Z,988.06
2018-05-11T02:12:26.438Z,988.13
2018-05-11T02:13:26.382Z,988.14
2018-05-11T02:14:26.320Z,988.16
2018-05-11T02:15:26.260Z,988.19
2018-05-11T02:16:26.202Z,988.17
2018-05-11T02:17:26.183Z,988.18
2018-05-11T02:18:26.083Z,988.21
2018-05-11T02:19:26.023Z,988.21
2018-05-11T02:20:25.964Z,988.24
2018-05-11T02:21:25.913Z,988.21
2018-05-11T02:22:25.847Z,988.20
2018-05-11T02:23:25.787Z,988.23
2018-05-11T02:24:25.727Z,988.21
2018-05-11T02:25:25.666Z,988.24
2018-05-11T02:26:25.607Z,988.18
2018-05-11T02:27:25.548Z,988.18
2018-05-11T02:28:25.495Z,988.17
2018-05-11T02:29:25.431Z,988.16
2018-05-11T02:30:25.371Z,988.14
2018-05-11T02:31:25.315Z,988.15
2018-05-11T02:32:25.252Z,988.16
2018-05-11T02:33:25.192Z,988.16
2018-05-11T02:34:25.135Z,988.17
2018-05-11T02:35:25.072Z,988.20
2018-05-11T02:36:25.016Z,988.19
2018-05-11T02:37:24.954Z,988.23
2018-05-11T02:38:24.893Z,988.20
2018-05-11T02:39:24.835Z,988.20
2018-05-11T02:40:24.776Z,988.23
2018-05-11T02:41:24.715Z,988.27
2018-05-11T02:42:24.657Z,988.24
2018-05-11T02:43:24.601Z,988.21
2018-05-11T02:44:24.559Z,988.21
2018-05-11T02:45:24.481Z,988.28
2018-05-11T02:46:24.421Z,988.23
2018-05-11T02:47:24.371Z,988.21
2018-05-11T02:48:24.303Z,988.23
2018-05-11T02:49:24.242Z,988.23
2018-05-11T02:50:24.184Z,988.20
2018-05-11T02:51:24.125Z,988.17
2018-05-11T02:52:24.065Z,988.18
2018-05-11T02:53:24.006Z,988.14
2018-05-11T02:54:23.946Z,988.17
2018-05-11T02:55:23.887Z,988.18
2018-05-11T02:56:23.832Z,988.17
2018-05-11T02:57:23.770Z,988.15
2018-05-11T02:58:23.711Z,988.09
2018-05-11T02:59:23.656Z,988.08
2018-05-11T03:00:23.593Z,988.20
2018-05-11T03:01:23.536Z,988.16
2018-05-11T03:02:23.480Z,988.12
2018-05-11T03:03:23.418Z,988.11
2018-05-11T03:04:23.356Z,988.14
2018-05-11T03:05:23.298Z,988.13
2018-05-11T03:06:23.239Z,988.11
2018-05-11T03:07:23.179Z,988.11
2018-05-11T03:08:23.123Z,988.16
2018-05-11T03:09:23.062Z,988.13
2018-05-11T03:10:23.074Z,988.10
2018-05-11T03:11:22.943Z,988.07
2018-05-11T03:12:22.886Z,988.11
2018-05-11T03:13:22.829Z,988.04
2018-05-11T03:14:22.769Z,988.09
2018-05-11T03:15:22.708Z,988.04
2018-05-11T03:16:22.649Z,988.08
2018-05-11T03:17:22.595Z,988.11
2018-05-11T03:18:22.548Z,988.05
2018-05-11T03:19:22.476Z,988.11
2018-05-11T03:20:22.440Z,988.12
2018-05-11T03:21:22.353Z,988.06
2018-05-11T03:22:22.295Z,988.06
2018-05-11T03:23:22.237Z,988.08
2018-05-11T03:24:22.178Z,988.03
2018-05-11T03:25:22.117Z,988.09
2018-05-11T03:26:22.059Z,988.13
2018-05-11T03:27:22.000Z,988.11
2018-05-11T03:28:21.945Z,988.11
2018-05-11T03:29:21.884Z,988.05
2018-05-11T03:30:21.828Z,988.13
2018-05-11T03:31:21.765Z,988.10
2018-05-11T03:32:21.706Z,988.10
2018-05-11T03:33:21.645Z,988.07
2018-05-11T03:34:21.590Z,988.11
2018-05-11T03:35:21.528Z,988.15
2018-05-11T03:36:21.470Z,988.18
2018-05-11T03:37:21.410Z,988.16
2018-05-11T03:38:21.402Z,988.20
2018-05-11T03:39:21.292Z,988.15
2018-05-11T03:40:21.232Z,988.20
2018-05-11T03:41:21.174Z,988.21
2018-05-11T03:42:21.119Z,988.22
2018-05-11T03:43:21.056Z,988.30
2018-05-11T03:44:21.016Z,988.24
2018-05-11T03:45:20.935Z,988.24
2018-05-11T03:46:20.880Z,988.24
2018-05-11T03:47:20.820Z,988.27
2018-05-11T03:48:20.760Z,988.27
2018-05-11T03:49:20.702Z,988.31
2018-05-11T03:50:20.643Z,988.28
2018-05-11T03:51:20.583Z,988.31
2018-05-11T03:52:20.526Z,988.33
2018-05-11T03:53:20.465Z,988.32
2018-05-11T03:54:20.406Z,988.29
2018-05-11T03:55:20.348Z,988.34
2018-05-11T03:56:20.290Z,988.32
2018-05-11T03:57:20.229Z,988.29
2018-05-11T03:58:20.171Z,988.33
2018-05-11T03:59:20.111Z,988.30
2018-05-11T04:00:20.053Z,988.28
2018-05-11T04:01:19.994Z,988.24
2018-05-11T04:02:19.935Z,988.19
2018-05-11T04:03:19.877Z,988.27
2018-05-11T04:04:19.817Z,988.23
2018-05-11T04:05:19.759Z,988.25
2018-05-11T04:06:19.699Z,988.24
2018-05-11T04:07:19.640Z,988.21
2018-05-11T04:08:19.587Z,988.22
2018-05-11T04:09:19.521Z,988.21
2018-05-11T04:10:19.465Z,988.21
2018-05-11T04:11:19.404Z,988.15
2018-05-11T04:12:19.347Z,988.11
2018-05-11T04:13:19.285Z,988.16
2018-05-11T04:14:19.229Z,988.15
2018-05-11T04:15:19.169Z,988.19
2018-05-11T04:16:19.110Z,988.21
2018-05-11T04:17:19.051Z,988.22
2018-05-11T04:18:18.992Z,988.20
2018-05-11T04:19:18.933Z,988.22
2018-05-11T04:20:18.875Z,988.24
2018-05-11T04:21:18.815Z,988.22
2018-05-11T04:22:18.757Z,988.27
2018-05-11T04:23:18.699Z,988.31
2018-05-11T04:24:18.645Z,988.34
2018-05-11T04:25:18.583Z,988.35
2018-05-11T04:26:18.523Z,988.35
2018-05-11T04:27:18.463Z,988.35
2018-05-11T04:28:18.405Z,988.38
2018-05-11T04:29:18.346Z,988.38
2018-05-11T04:30:18.367Z,988.39
2018-05-11T04:31:18.229Z,988.39
2018-05-11T04:32:18.170Z,988.40
2018-05-11T04:33:18.109Z,988.41
2018-05-11T04:34:18.050Z,988.41
2018-05-11T04:35:17.992Z,988.38
2018-05-11T04:36:17.932Z,988.38
2018-05-11T04:37:17.933Z,988.37
2018-05-11T04:38:17.816Z,988.38
2018-05-11T04:39:17.755Z,988.37
2018-05-11T04:40:17.695Z,988.34
2018-05-11T04:41:17.637Z,988.35
2018-05-11T04:42:17.577Z,988.36
2018-05-11T04:43:17.520Z,988.32
2018-05-11T04:44:17.464Z,988.30
2018-05-11T04:45:17.434Z,988.30
2018-05-11T04:46:17.345Z,988.34
2018-05-11T04:47:17.281Z,988.32
2018-05-11T04:48:17.227Z,988.34
2018-05-11T04:49:17.162Z,988.31
2018-05-11T04:50:17.104Z,988.35
2018-05-11T04:51:17.045Z,988.36
2018-05-11T04:52:16.985Z,988.35
2018-05-11T04:53:16.938Z,988.39
2018-05-11T04:54:16.868Z,988.37
2018-05-11T04:55:16.807Z,988.39
2018-05-11T04:56:16.753Z,988.40
2018-05-11T04:57:16.691Z,988.39
2018-05-11T04:58:16.631Z,988.38
2018-05-11T04:59:16.572Z,988.41
2018-05-11T05:00:16.517Z,988.42
2018-05-11T05:01:16.457Z,988.43
2018-05-11T05:02:16.400Z,988.44
2018-05-11T05:03:16.343Z,988.45
2018-05-11T05:04:16.280Z,988.40
2018-05-11T05:05:16.221Z,988.45
2018-05-11T05:06:16.162Z,988.46
2018-05-11T05:07:16.103Z,988.48
2018-05-11T05:08:16.048Z,988.42
2018-05-11T05:09:15.987Z,988.50
2018-05-11T05:10:15.936Z,988.48
2018-05-11T05:11:15.875Z,988.43
2018-05-11T05:12:15.831Z,988.44
2018-05-11T05:13:15.752Z,988.46
2018-05-11T05:14:15.696Z,988.43
2018-05-11T05:15:15.637Z,988.47
2018-05-11T05:16:15.579Z,988.48
2018-05-11T05:17:15.519Z,988.42
2018-05-11T05:18:15.465Z,988.43
2018-05-11T05:19:15.457Z,988.42
2018-05-11T05:20:15.347Z,988.43
2018-05-11T05:21:15.288Z,988.38
2018-05-11T05:22:15.230Z,988.40
2018-05-11T05:23:15.172Z,988.42
2018-05-11T05:24:15.113Z,988.39
2018-05-11T05:25:15.055Z,988.39
2018-05-11T05:26:14.997Z,988.41
2018-05-11T05:27:14.940Z,988.38
2018-05-11T05:28:14.882Z,988.40
2018-05-11T05:29:14.822Z,988.40
2018-05-11T05:30:14.765Z,988.40
2018-05-11T05:31:14.708Z,988.39
2018-05-11T05:32:14.650Z,988.43
2018-05-11T05:33:14.746Z,988.44
2018-05-11T05:34:14.532Z,988.46
2018-05-11T05:35:14.476Z,988.47
2018-05-11T05:36:14.427Z,988.45
2018-05-11T05:37:14.388Z,988.43
2018-05-11T05:38:14.302Z,988.43
2018-05-11T05:39:14.323Z,988.39
2018-05-11T05:40:14.187Z,988.38
2018-05-11T05:41:14.129Z,988.35
2018-05-11T05:42:14.071Z,988.34
2018-05-11T05:43:14.017Z,988.31
2018-05-11T05:44:13.959Z,988.30
2018-05-11T05:45:13.902Z,988.28
2018-05-11T05:46:13.842Z,988.24
2018-05-11T05:47:13.784Z,988.24
2018-05-11T05:48:13.729Z,988.24
2018-05-11T05:49:13.667Z,988.23
2018-05-11T05:50:13.609Z,988.21
2018-05-11T05:51:13.552Z,988.23
2018-05-11T05:52:13.495Z,988.22
2018-05-11T05:53:13.437Z,988.23
2018-05-11T05:54:13.380Z,988.26
2018-05-11T05:55:13.321Z,988.27
2018-05-11T05:56:13.265Z,988.27
2018-05-11T05:57:13.205Z,988.26
2018-05-11T05:58:13.147Z,988.25
2018-05-11T05:59:13.092Z,988.26
2018-05-11T06:00:13.032Z,988.22
2018-05-11T06:01:12.974Z,988.19
2018-05-11T06:02:12.917Z,988.21
2018-05-11T06:03:12.858Z,988.23
2018-05-11T06:04:12.801Z,988.24
2018-05-11T06:05:12.743Z,988.21
2018-05-11T06:06:12.685Z,988.32
2018-05-11T06:07:12.627Z,988.30
2018-05-11T06:08:12.593Z,988.34
2018-05-11T06:09:12.512Z,988.31
2018-05-11T06:10:12.455Z,988.33
2018-05-11T06:11:12.400Z,988.26
2018-05-11T06:12:12.346Z,988.25
2018-05-11T06:13:12.282Z,988.27
2018-05-11T06:14:12.227Z,988.19
2018-05-11T06:15:12.167Z,988.20
2018-05-11T06:16:12.110Z,988.19
2018-05-11T06:17:12.053Z,988.19
2018-05-11T06:18:11.997Z,988.15
2018-05-11T06:19:11.938Z,988.18
2018-05-11T06:20:11.882Z,988.19
2018-05-11T06:21:11.836Z,988.21
2018-05-11T06:22:11.768Z,988.23
2018-05-11T06:23:11.708Z,988.21
2018-05-11T06:24:11.651Z,988.23
2018-05-11T06:25:11.600Z,988.22
2018-05-11T06:26:11.536Z,988.16
2018-05-11T06:27:11.480Z,988.16
2018-05-11T06:28:11.427Z,988.22
2018-05-11T06:29:11.366Z,988.14
2018-05-11T06:30:11.308Z,988.18
2018-05-11T06:31:11.251Z,988.11
2018-05-11T06:32:11.194Z,988.14
2018-05-11T06:33:11.138Z,988.18
2018-05-11T06:34:11.080Z,988.13
2018-05-11T06:35:11.024Z,988.16
2018-05-11T06:36:10.970Z,988.13
2018-05-11T06:37:10.917Z,988.14
2018-05-11T06:38:10.853Z,988.12
2018-05-11T06:39:10.797Z,988.12
2018-05-11T06:40:10.740Z,988.13
2018-05-11T06:41:10.681Z,988.10
2018-05-11T06:42:10.627Z,988.04
2018-05-11T06:43:10.577Z,988.04
2018-05-11T06:44:10.513Z,988.01
2018-05-11T06:45:10.455Z,988.00
2018-05-11T06:46:10.401Z,987.99
2018-05-11T06:47:10.344Z,987.96
2018-05-11T06:48:10.287Z,987.99
2018-05-11T06:49:10.228Z,988.04
2018-05-11T06:50:10.173Z,988.01
2018-05-11T06:51:10.118Z,988.00
2018-05-11T06:52:10.062Z,987.98
2018-05-11T06:53:10.003Z,987.93
2018-05-11T06:54:09.947Z,987.96
2018-05-11T06:55:09.889Z,987.93
2018-05-11T06:56:09.833Z,987.92
2018-05-11T06:57:09.781Z,987.94
2018-05-11T06:58:09.723Z,987.95
2018-05-11T06:59:09.663Z,987.94
2018-05-11T07:00:09.638Z,987.94
2018-05-11T07:01:09.550Z,987.92
2018-05-11T07:02:09.495Z,987.94
2018-05-11T07:03:09.440Z,987.92
2018-05-11T07:04:09.382Z,987.90
2018-05-11T07:05:09.326Z,987.93
2018-05-11T07:06:09.268Z,987.88
2018-05-11T07:07:09.212Z,987.89
2018-05-11T07:08:09.156Z,987.87
2018-05-11T07:09:09.099Z,987.84
2018-05-11T07:10:09.043Z,987.88
2018-05-11T07:11:08.987Z,987.82
2018-05-11T07:12:08.931Z,987.85
2018-05-11T07:13:08.876Z,987.85
2018-05-11T07:14:08.819Z,987.80
2018-05-11T07:15:08.770Z,987.80
2018-05-11T07:16:08.708Z,987.84
2018-05-11T07:17:08.650Z,987.80
2018-05-11T07:18:08.597Z,987.86
2018-05-11T07:19:08.537Z,987.84
2018-05-11T07:20:08.486Z,987.82
2018-05-11T07:21:08.431Z,987.82
2018-05-11T07:22:08.369Z,987.77
2018-05-11T07:23:08.318Z,987.79
2018-05-11T07:24:08.259Z,987.79
2018-05-11T07:25:08.202Z,987.78
2018-05-11T07:26:08.155Z,987.81
2018-05-11T07:27:08.090Z,987.79
2018-05-11T07:28:08.036Z,987.78
2018-05-11T07:29:07.980Z,987.75
2018-05-11T07:30:07.923Z,987.71
2018-05-11T07:31:07.870Z,987.65
2018-05-11T07:32:07.812Z,987.67
2018-05-11T07:33:07.757Z,987.66
2018-05-11T07:34:07.703Z,987.67
2018-05-11T07:35:07.647Z,987.67
2018-05-11T07:36:07.591Z,987.65
2018-05-11T07:37:07.537Z,987.66
2018-05-11T07:38:07.480Z,987.72
2018-05-11T07:39:07.424Z,987.70
2018-05-11T07:40:07.369Z,987.67
2018-05-11T07:41:07.316Z,987.67
2018-05-11T07:42:07.258Z,987.66
2018-05-11T07:43:07.207Z,987.68
2018-05-11T07:44:07.147Z,987.66
2018-05-11T07:45:07.091Z,987.66
2018-05-11T07:46:07.038Z,987.65
2018-05-11T07:47:06.981Z,987.71
2018-05-11T07:48:06.927Z,987.71
2018-05-11T07:49:06.871Z,987.67
2018-05-11T07:50:06.816Z,987.64
2018-05-11T07:51:06.761Z,987.68
2018-05-11T07:52:06.705Z,987.65
2018-05-11T07:53:06.651Z,987.67
2018-05-11T07:54:06.599Z,987.68
2018-05-11T07:55:06.544Z,987.62
2018-05-11T07:56:06.489Z,987.66
2018-05-11T07:57:06.434Z,987.68
2018-05-11T07:58:06.376Z,987.65
2018-05-11T07:59:06.323Z,987.70
2018-05-11T08:00:06.267Z,987.69
2018-05-11T08:01:06.212Z,987.64
2018-05-11T08:02:06.157Z,987.59
2018-05-11T08:03:06.105Z,987.59
2018-05-11T08:04:06.052Z,987.51
2018-05-11T08:05:05.995Z,987.45
2018-05-11T08:06:05.945Z,987.50
2018-05-11T08:07:05.885Z,987.48
2018-05-11T08:08:05.832Z,987.48
2018-05-11T08:09:05.777Z,987.48
2018-05-11T08:10:05.722Z,987.42
2018-05-11T08:11:05.669Z,987.39
2018-05-11T08:12:05.616Z,987.38
2018-05-11T08:13:05.560Z,987.39
2018-05-11T08:14:05.551Z,987.39
2018-05-11T08:15:05.451Z,987.39
2018-05-11T08:16:05.397Z,987.36
2018-05-11T08:17:05.341Z,987.38
2018-05-11T08:18:05.292Z,987.35
2018-05-11T08:19:05.235Z,987.37
2018-05-11T08:20:05.181Z,987.34
2018-05-11T08:21:05.127Z,987.30
2018-05-11T08:22:05.071Z,987.31
2018-05-11T08:23:05.019Z,987.29
2018-05-11T08:24:04.970Z,987.26
2018-05-11T08:25:04.910Z,987.29
2018-05-11T08:26:04.858Z,987.23
2018-05-11T08:27:04.807Z,987.28
2018-05-11T08:28:04.752Z,987.24
2018-05-11T08:29:04.706Z,987.22
2018-05-11T08:30:04.645Z,987.21
2018-05-11T08:31:04.591Z,987.26
2018-05-11T08:32:04.539Z,987.24
2018-05-11T08:33:04.486Z,987.22
2018-05-11T08:34:04.432Z,987.19
2018-05-11T08:35:04.377Z,987.26
2018-05-11T08:36:04.326Z,987.17
2018-05-11T08:37:04.269Z,987.12
2018-05-11T08:38:04.218Z,987.11
2018-05-11T08:39:04.165Z,987.11
2018-05-11T08:40:04.114Z,987.16
2018-05-11T08:41:04.058Z,987.12
2018-05-11T08:42:04.008Z,987.17
2018-05-11T08:43:03.953Z,987.15
2018-05-11T08:44:03.905Z,987.16
2018-05-11T08:45:03.849Z,987.13
2018-05-11T08:46:03.794Z,987.07
2018-05-11T08:47:03.740Z,987.08
2018-05-11T08:48:03.690Z,987.07
2018-05-11T08:49:03.635Z,987.10
2018-05-11T08:50:03.588Z,987.03
2018-05-11T08:51:03.530Z,987.03
2018-05-11T08:52:03.479Z,987.10
2018-05-11T08:53:03.430Z,987.08
2018-05-11T08:54:03.379Z,987.07
2018-05-11T08:55:03.318Z,986.98
2018-05-11T08:56:03.268Z,987.00
2018-05-11T08:57:03.212Z,987.06
2018-05-11T08:58:03.163Z,987.00
2018-05-11T08:59:03.108Z,987.03
2018-05-11T09:00:03.055Z,986.97
2018-05-11T09:01:03.001Z,986.98
2018-05-11T09:02:02.948Z,986.92
2018-05-11T09:03:02.979Z,986.97
2018-05-11T09:04:02.846Z,986.97
2018-05-11T09:05:02.790Z,986.94
2018-05-11T09:06:02.735Z,986.93
2018-05-11T09:07:02.682Z,986.94
2018-05-11T09:08:02.630Z,986.88
2018-05-11T09:09:02.577Z,986.86
2018-05-11T09:10:02.527Z,986.91
2018-05-11T09:11:02.471Z,986.92
2018-05-11T09:12:02.419Z,986.93
2018-05-11T09:13:02.366Z,986.93
2018-05-11T09:14:02.313Z,986.92
2018-05-11T09:15:02.265Z,986.84
2018-05-11T09:16:02.208Z,986.85
2018-05-11T09:17:02.163Z,986.87
2018-05-11T09:18:02.101Z,986.78
2018-05-11T09:19:02.052Z,986.80
2018-05-11T09:20:01.998Z,986.84
2018-05-11T09:21:01.943Z,986.89
2018-05-11T09:22:01.942Z,986.83
2018-05-11T09:23:01.839Z,986.87
2018-05-11T09:24:01.787Z,986.90
2018-05-11T09:25:01.736Z,986.89
2018-05-11T09:26:01.687Z,986.84
2018-05-11T09:27:01.632Z,986.77
2018-05-11T09:28:01.581Z,986.76
2018-05-11T09:29:01.527Z,986.73
2018-05-11T09:30:01.482Z,986.81
2018-05-11T09:31:01.427Z,986.70
2018-05-11T09:32:01.376Z,986.67
2018-05-11T09:33:01.318Z,986.64
2018-05-11T09:34:01.268Z,986.71
2018-05-11T09:35:01.217Z,986.74
2018-05-11T09:36:01.165Z,986.75
2018-05-11T09:37:01.112Z,986.76
2018-05-11T09:38:01.067Z,986.76
2018-05-11T09:39:01.010Z,986.73
2018-05-11T09:40:00.959Z,986.78
2018-05-11T09:41:00.908Z,986.74
2018-05-11T09:42:00.855Z,986.72
2018-05-11T09:43:00.812Z,986.68
2018-05-11T09:44:00.753Z,986.62
2018-05-11T09:45:00.701Z,986.70
2018-05-11T09:46:00.652Z,986.63
2018-05-11T09:47:00.602Z,986.63
2018-05-11T09:48:00.549Z,986.61
2018-05-11T09:49:00.498Z,986.62
2018-05-11T09:50:00.444Z,986.61
2018-05-11T09:51:00.393Z,986.64
2018-05-11T09:52:00.344Z,986.63
2018-05-11T09:53:00.290Z,986.60
2018-05-11T09:54:00.239Z,986.64
2018-05-11T09:55:00.195Z,986.58
2018-05-11T09:56:00.138Z,986.60
2018-05-11T09:57:00.090Z,986.57
2018-05-11T09:58:00.034Z,986.55
2018-05-11T09:58:59.984Z,986.54
2018-05-11T09:59:59.933Z,986.53
2018-05-11T10:00:59.880Z,986.52
2018-05-11T10:01:59.829Z,986.53
2018-05-11T10:02:59.778Z,986.51
2018-05-11T10:03:59.756Z,986.56
2018-05-11T10:04:59.677Z,986.54
2018-05-11T10:05:59.623Z,986.56
2018-05-11T10:06:59.573Z,986.56
2018-05-11T10:07:59.520Z,986.54
2018-05-11T10:08:59.468Z,986.42
2018-05-11T10:09:59.417Z,986.54
2018-05-11T10:10:59.366Z,986.63
2018-05-11T10:11:59.315Z,986.63
2018-05-11T10:12:59.262Z,986.55
2018-05-11T10:13:59.271Z,986.60
2018-05-11T10:14:59.158Z,986.51
2018-05-11T10:15:59.110Z,986.55
2018-05-11T10:16:59.056Z,986.56
2018-05-11T10:17:59.003Z,986.53
2018-05-11T10:18:58.952Z,986.53
2018-05-11T10:19:58.901Z,986.53
2018-05-11T10:20:58.849Z,986.53
2018-05-11T10:21:58.798Z,986.51
2018-05-11T10:22:58.746Z,986.47
2018-05-11T10:23:58.695Z,986.52
2018-05-11T10:24:58.649Z,986.49
2018-05-11T10:25:58.602Z,986.46
2018-05-11T10:26:58.541Z,986.34
2018-05-11T10:27:58.490Z,986.39
2018-05-11T10:28:58.501Z,986.39
2018-05-11T10:29:58.391Z,986.38
2018-05-11T10:30:58.337Z,986.41
2018-05-11T10:31:58.285Z,986.41
2018-05-11T10:32:58.235Z,986.42
2018-05-11T10:33:58.187Z,986.35
2018-05-11T10:34:58.135Z,986.31
2018-05-11T10:35:58.081Z,986.34
2018-05-11T10:36:58.029Z,986.40
2018-05-11T10:37:57.979Z,986.35
2018-05-11T10:38:57.929Z,986.32
2018-05-11T10:39:57.950Z,986.33
2018-05-11T10:40:57.829Z,986.33
2018-05-11T10:41:57.775Z,986.26
2018-05-11T10:42:57.725Z,986.26
2018-05-11T10:43:57.676Z,986.26
2018-05-11T10:44:57.626Z,986.27
2018-05-11T10:45:57.572Z,986.31
2018-05-11T10:46:57.522Z,986.24
2018-05-11T10:47:57.471Z,986.16
2018-05-11T10:48:57.418Z,986.20
2018-05-11T10:49:57.368Z,986.23
2018-05-11T10:50:57.329Z,986.24
2018-05-11T10:51:57.266Z,986.20
2018-05-11T10:52:57.214Z,986.22
2018-05-11T10:53:57.162Z,986.17
2018-05-11T10:54:57.112Z,986.20
2018-05-11T10:55:57.063Z,986.19
2018-05-11T10:56:57.009Z,986.23
2018-05-11T10:57:56.957Z,986.20
2018-05-11T10:58:56.905Z,986.26
2018-05-11T10:59:56.854Z,986.20
2018-05-11T11:00:56.816Z,986.20
2018-05-11T11:01:56.753Z,986.21
2018-05-11T11:02:56.701Z,986.22
2018-05-11T11:03:56.652Z,986.17
2018-05-11T11:04:56.598Z,986.21
2018-05-11T11:05:56.548Z,986.22
2018-05-11T11:06:56.497Z,986.20
2018-05-11T11:07:56.447Z,986.23
2018-05-11T11:08:56.395Z,986.21
2018-05-11T11:09:56.344Z,986.23
2018-05-11T11:10:56.295Z,986.14
2018-05-11T11:11:56.243Z,986.18
2018-05-11T11:12:56.191Z,986.12
2018-05-11T11:13:56.223Z,986.14
2018-05-11T11:14:56.093Z,986.05
2018-05-11T11:15:56.042Z,986.01
2018-05-11T11:16:55.989Z,986.01
2018-05-11T11:17:55.940Z,986.09
2018-05-11T11:18:55.889Z,986.07
2018-05-11T11:19:55.933Z,985.99
2018-05-11T11:20:55.790Z,986.01
2018-05-11T11:21:55.739Z,985.95
2018-05-11T11:22:55.695Z,985.90
2018-05-11T11:23:55.641Z,985.86
2018-05-11T11:24:55.589Z,985.89
2018-05-11T11:25:55.600Z,985.88
2018-05-11T11:26:55.488Z,985.85
2018-05-11T11:27:55.439Z,985.77
2018-05-11T11:28:55.388Z,985.81
2018-05-11T11:29:55.338Z,985.77
2018-05-11T11:30:55.293Z,985.74
2018-05-11T11:31:55.238Z,985.74
2018-05-11T11:32:55.189Z,985.76
2018-05-11T11:33:55.138Z,985.71
2018-05-11T11:34:55.091Z,985.76
2018-05-11T11:35:55.047Z,985.71
2018-05-11T11:36:54.990Z,985.67
2018-05-11T11:37:54.940Z,985.60
2018-05-11T11:38:54.888Z,985.62
2018-05-11T11:39:54.840Z,985.67
2018-05-11T11:40:54.791Z,985.67
2018-05-11T11:41:54.832Z,985.66
2018-05-11T11:42:54.690Z,985.63
2018-05-11T11:43:54.641Z,985.62
2018-05-11T11:44:54.590Z,985.62
2018-05-11T11:45:54.542Z,985.57
2018-05-11T11:46:54.493Z,985.51
2018-05-11T11:47:54.443Z,985.54
2018-05-11T11:48:54.394Z,985.55
2018-05-11T11:49:54.343Z,985.55
2018-05-11T11:50:54.293Z,985.51
2018-05-11T11:51:54.250Z,985.53
2018-05-11T11:52:54.195Z,985.49
2018-05-11T11:53:54.145Z,985.51
2018-05-11T11:54:54.096Z,985.49
2018-05-11T11:55:54.045Z,985.45
2018-05-11T11:56:53.995Z,985.44
2018-05-11T11:57:53.945Z,985.46
2018-05-11T11:58:53.895Z,985.47
2018-05-11T11:59:53.846Z,985.46
2018-05-11T12:00:53.793Z,985.50
2018-05-11T12:01:53.849Z,985.49
2018-05-11T12:02:53.702Z,985.47
2018-05-11T12:03:53.642Z,985.46
2018-05-11T12:04:53.594Z,985.49
2018-05-11T12:05:53.540Z,985.49
2018-05-11T12:06:53.497Z,985.52
2018-05-11T12:07:53.443Z,985.56
2018-05-11T12:08:53.441Z,985.61
2018-05-11T12:09:53.337Z,985.47
2018-05-11T12:10:53.285Z,985.51
2018-05-11T12:11:53.235Z,985.47
2018-05-11T12:12:53.187Z,985.39
2018-05-11T12:13:53.134Z,985.43
2018-05-11T12:14:53.083Z,985.43
2018-05-11T12:15:53.031Z,985.42
2018-05-11T12:16:52.980Z,985.46
2018-05-11T12:17:52.930Z,985.42
2018-05-11T12:18:52.879Z,985.39
2018-05-11T12:19:52.833Z,985.40
2018-05-11T12:20:52.775Z,985.42
2018-05-11T12:21:52.724Z,985.44
2018-05-11T12:22:52.675Z,985.42
2018-05-11T12:23:52.624Z,985.38
2018-05-11T12:24:52.571Z,985.42
2018-05-11T12:25:52.521Z,985.42
2018-05-11T12:26:52.471Z,985.37
2018-05-11T12:27:52.420Z,985.30